Time;durP1;ratioP1;P1;durP2;ratioP2;P2;SDS_P1;SDS_P2;PMS_P1;PMS_P2;Temp;Humidity;BMP_temperature;BMP_pressure;BME280_temperature;BME280_humidity;BME280_pressure;Samples;Min_cycle;Max_cycle;Signal;HPM_P1;HPM_P2
2021/05/10 00:01:52;;;;;;;5.78;3.80;;;17.40;99.90;;;;;;5072454;28;20361;-76
2021/05/10 00:04:18;;;;;;;5.65;2.95;;;17.40;99.90;;;;;;5072250;28;20017;-76
2021/05/10 00:06:43;;;;;;;3.47;3.20;;;17.30;99.90;;;;;;5071871;28;20032;-76
2021/05/10 00:09:09;;;;;;;4.20;3.40;;;17.30;99.90;;;;;;5072684;28;20024;-76
2021/05/10 00:11:35;;;;;;;4.80;4.00;;;17.30;99.90;;;;;;5071756;28;20020;-74
2021/05/10 00:14:05;;;;;;;5.13;3.83;;;17.30;99.90;;;;;;5073102;28;20028;-74
2021/05/10 00:16:32;;;;;;;14.43;3.50;;;17.30;99.90;;;;;;5071806;28;20048;-74
2021/05/10 00:18:58;;;;;;;5.93;3.67;;;17.20;99.90;;;;;;5072425;28;20048;-75
2021/05/10 00:21:23;;;;;;;4.00;3.70;;;17.20;99.90;;;;;;5072286;28;20028;-74
2021/05/10 00:23:49;;;;;;;5.90;4.85;;;17.20;99.90;;;;;;5071534;28;20036;-77
2021/05/10 00:26:14;;;;;;;7.85;4.47;;;17.10;99.90;;;;;;5072048;28;20020;-75
2021/05/10 00:28:40;;;;;;;3.60;3.40;;;17.10;99.90;;;;;;5054207;28;20044;-75
2021/05/10 00:31:05;;;;;;;8.75;4.18;;;17.10;99.90;;;;;;5071531;28;20358;-74
2021/05/10 00:33:31;;;;;;;4.85;3.72;;;17.10;99.90;;;;;;5071749;28;20487;-74
2021/05/10 00:35:56;;;;;;;5.47;3.97;;;17.10;99.90;;;;;;5072053;28;20085;-75
2021/05/10 00:38:22;;;;;;;7.22;3.65;;;17.10;99.90;;;;;;5071196;28;20033;-76
2021/05/10 00:40:48;;;;;;;7.57;3.80;;;17.10;99.90;;;;;;5072014;28;20028;-76
2021/05/10 00:43:13;;;;;;;6.70;3.92;;;17.00;99.90;;;;;;5072101;28;20111;-76
2021/05/10 00:45:39;;;;;;;10.07;4.07;;;17.00;99.90;;;;;;5071775;28;20055;-76
2021/05/10 00:48:05;;;;;;;4.03;3.53;;;17.00;99.90;;;;;;5071907;28;20067;-75
2021/05/10 00:50:31;;;;;;;4.45;3.97;;;17.00;99.90;;;;;;5071999;28;20027;-76
2021/05/10 00:52:56;;;;;;;8.20;4.63;;;17.00;99.90;;;;;;5071219;28;20453;-76
2021/05/10 00:55:22;;;;;;;4.90;4.50;;;17.00;99.90;;;;;;5071539;28;20033;-75
2021/05/10 00:57:53;;;;;;;7.15;4.70;;;17.00;99.90;;;;;;5071854;28;20021;-76
2021/05/10 01:00:21;;;;;;;6.93;4.25;;;17.00;99.90;;;;;;5070994;28;20024;-75
2021/05/10 01:02:47;;;;;;;8.20;4.07;;;16.90;99.90;;;;;;5071496;28;20067;-76
2021/05/10 01:05:15;;;;;;;6.10;4.93;;;16.90;99.90;;;;;;5071526;28;20052;-75
2021/05/10 01:07:41;;;;;;;4.85;4.32;;;16.90;99.90;;;;;;5070685;28;20117;-77
2021/05/10 01:10:10;;;;;;;5.00;4.60;;;16.90;99.90;;;;;;5071912;28;20028;-75
2021/05/10 01:12:37;;;;;;;5.90;4.38;;;16.90;99.90;;;;;;5071957;28;20025;-76
2021/05/10 01:15:06;;;;;;;4.45;4.03;;;16.90;99.90;;;;;;5071104;28;20094;-75
2021/05/10 01:17:33;;;;;;;7.20;4.28;;;16.90;99.90;;;;;;5072403;28;20112;-75
2021/05/10 01:19:59;;;;;;;5.10;4.60;;;16.90;99.90;;;;;;5075458;28;20025;-75
2021/05/10 01:22:45;;;;;;;5.22;4.72;;;16.90;99.90;;;;;;5075383;28;20468;-75
2021/05/10 01:25:14;;;;;;;4.90;4.13;;;16.90;99.90;;;;;;5075941;28;20031;-74
2021/05/10 01:27:42;;;;;;;7.47;4.63;;;16.90;99.90;;;;;;5086340;28;20024;-75
2021/05/10 01:30:28;;;;;;;4.68;4.28;;;16.90;99.90;;;;;;5096030;28;20027;-74
2021/05/10 01:32:55;;;;;;;5.70;4.28;;;16.90;99.90;;;;;;5095794;28;20379;-76
2021/05/10 01:35:26;;;;;;;4.65;3.75;;;16.90;99.90;;;;;;5094751;28;20031;-76
2021/05/10 01:37:52;;;;;;;6.20;4.38;;;16.90;99.90;;;;;;5095738;28;20460;-76
2021/05/10 01:40:18;;;;;;;5.55;4.43;;;17.70;99.90;;;;;;5096007;28;20035;-76
2021/05/10 01:42:44;;;;;;;4.90;4.10;;;16.80;99.90;;;;;;5095433;28;20027;-76
2021/05/10 01:45:10;;;;;;;7.82;3.60;;;16.80;99.90;;;;;;5095522;28;20050;-76
2021/05/10 01:47:36;;;;;;;4.68;4.28;;;16.80;99.90;;;;;;5095031;28;20080;-76
2021/05/10 01:50:12;;;;;;;6.78;4.13;;;16.80;99.90;;;;;;5094623;28;20020;-76
2021/05/10 01:52:38;;;;;;;5.00;4.60;;;16.80;99.90;;;;;;5095507;28;20032;-76
2021/05/10 01:55:04;;;;;;;4.70;4.38;;;16.80;99.90;;;;;;5094678;28;20103;-76
2021/05/10 01:57:30;;;;;;;5.20;4.05;;;16.80;99.90;;;;;;5095216;28;20476;-76
2021/05/10 01:59:55;;;;;;;5.72;4.55;;;16.70;99.90;;;;;;5095500;28;20032;-76
2021/05/10 02:02:21;;;;;;;5.53;4.38;;;16.80;99.90;;;;;;5094324;28;20027;-76
2021/05/10 02:05:06;;;;;;;6.07;4.35;;;16.70;99.90;;;;;;5095403;28;20133;-77
2021/05/10 02:07:34;;;;;;;8.50;4.60;;;16.70;99.90;;;;;;5095237;28;20031;-76
2021/05/10 02:10:00;;;;;;;4.93;4.40;;;16.70;99.90;;;;;;5096425;28;20064;-76
2021/05/10 02:12:29;;;;;;;8.13;4.57;;;16.70;99.90;;;;;;5104927;28;20055;-76
2021/05/10 02:14:55;;;;;;;5.97;4.28;;;16.70;99.90;;;;;;5091562;28;20099;-76
2021/05/10 02:17:20;;;;;;;9.10;4.82;;;16.70;99.90;;;;;;5090569;28;20428;-76
2021/05/10 02:19:46;;;;;;;9.40;5.70;;;16.70;99.90;;;;;;5095641;28;20588;-77
2021/05/10 02:22:11;;;;;;;6.75;6.13;;;16.70;99.90;;;;;;5096742;28;20107;-76
2021/05/10 02:24:37;;;;;;;10.88;6.63;;;16.70;99.90;;;;;;5095025;28;20038;-76
2021/05/10 02:27:04;;;;;;;7.53;6.28;;;16.70;99.90;;;;;;5094903;28;20034;-75
2021/05/10 02:29:30;;;;;;;7.80;6.70;;;16.60;99.90;;;;;;5093699;28;20020;-75
2021/05/10 02:31:55;;;;;;;8.10;7.30;;;16.60;99.90;;;;;;5094186;28;20027;-76
2021/05/10 02:34:21;;;;;;;9.07;7.88;;;16.60;99.90;;;;;;5094503;28;20024;-76
2021/05/10 02:36:46;;;;;;;8.35;7.63;;;16.60;99.90;;;;;;5095168;28;20032;-76
2021/05/10 02:39:12;;;;;;;9.82;8.20;;;16.50;99.90;;;;;;5094979;28;20032;-76
2021/05/10 02:41:38;;;;;;;9.75;8.90;;;16.50;99.90;;;;;;5094466;28;20016;-76
2021/05/10 02:44:04;;;;;;;11.23;9.57;;;16.50;99.90;;;;;;5094597;28;20383;-76
2021/05/10 02:46:29;;;;;;;11.95;9.70;;;16.40;99.90;;;;;;5093243;28;20020;-76
2021/05/10 02:48:55;;;;;;;11.63;10.52;;;16.30;99.90;;;;;;5094528;28;20017;-76
2021/05/10 02:51:20;;;;;;;10.98;10.07;;;16.30;99.90;;;;;;5093451;28;20024;-74
2021/05/10 02:53:46;;;;;;;11.25;10.18;;;16.20;99.90;;;;;;5094622;28;20380;-76
2021/05/10 02:56:11;;;;;;;14.05;11.75;;;16.20;99.90;;;;;;5095302;28;20035;-74
2021/05/10 02:58:37;;;;;;;12.15;11.05;;;16.20;99.90;;;;;;5093567;28;20401;-75
2021/05/10 03:01:03;;;;;;;12.98;11.82;;;16.20;99.90;;;;;;5094331;28;20088;-75
2021/05/10 03:03:28;;;;;;;13.40;12.02;;;16.20;99.90;;;;;;5093779;28;20032;-74
2021/05/10 03:05:54;;;;;;;13.07;11.98;;;16.20;99.90;;;;;;5093479;28;20412;-75
2021/05/10 03:08:19;;;;;;;14.20;12.90;;;16.20;99.90;;;;;;5093546;28;20481;-75
2021/05/10 03:10:45;;;;;;;15.00;13.50;;;16.20;99.90;;;;;;5093644;28;20020;-74
2021/05/10 03:13:10;;;;;;;13.80;12.30;;;16.30;99.90;;;;;;5080003;28;20035;-75
2021/05/10 03:15:36;;;;;;;13.43;12.00;;;16.30;99.90;;;;;;5091928;28;20024;-75
2021/05/10 03:18:02;;;;;;;14.35;12.98;;;16.30;99.90;;;;;;5093420;28;20074;-74
2021/05/10 03:20:27;;;;;;;17.25;13.20;;;16.30;99.90;;;;;;5092499;28;20028;-76
2021/05/10 03:22:53;;;;;;;18.88;13.13;;;16.30;99.90;;;;;;5093599;28;20398;-77
2021/05/10 03:25:20;;;;;;;16.30;12.27;;;16.30;99.90;;;;;;5093037;28;20046;-76
2021/05/10 03:27:46;;;;;;;17.38;13.27;;;16.30;99.90;;;;;;5082324;28;20040;-76
2021/05/10 03:30:14;;;;;;;14.07;12.60;;;16.30;99.90;;;;;;5085171;28;20031;-77
2021/05/10 03:32:41;;;;;;;13.82;12.05;;;16.30;99.90;;;;;;5092436;28;20031;-77
2021/05/10 03:35:09;;;;;;;16.92;12.48;;;16.20;99.90;;;;;;5084473;28;20532;-76
2021/05/10 03:37:34;;;;;;;15.30;12.95;;;16.20;99.90;;;;;;5080707;28;20112;-77
2021/05/10 03:40:00;;;;;;;12.70;11.60;;;16.20;99.90;;;;;;5078923;28;20111;-76
2021/05/10 03:42:26;;;;;;;12.57;11.48;;;16.20;99.90;;;;;;5092333;28;20031;-76
2021/05/10 03:44:53;;;;;;;12.77;11.75;;;16.20;99.90;;;;;;5093310;28;20031;-77
2021/05/10 03:47:19;;;;;;;12.52;11.43;;;16.10;99.90;;;;;;5092331;28;20036;-76
2021/05/10 03:49:45;;;;;;;11.63;10.52;;;16.20;99.90;;;;;;5092011;28;20031;-76
2021/05/10 03:52:10;;;;;;;10.90;9.75;;;16.20;99.90;;;;;;5092974;28;20020;-73
2021/05/10 03:54:36;;;;;;;7.60;6.90;;;16.20;99.90;;;;;;5083436;28;20078;-77
2021/05/10 03:57:02;;;;;;;6.20;5.20;;;16.20;99.90;;;;;;5092579;28;20036;-76
2021/05/10 03:59:28;;;;;;;6.15;3.78;;;16.20;99.90;;;;;;5092550;28;20433;-76
2021/05/10 04:01:55;;;;;;;7.38;3.78;;;16.30;99.90;;;;;;5091924;28;20039;-76
2021/05/10 04:04:33;;;;;;;3.22;3.00;;;16.30;99.90;;;;;;5092534;28;20357;-75
2021/05/10 04:14:58;;;;;;;5.80;2.65;;;16.60;99.90;;;;;;5092725;28;20031;-74
2021/05/10 04:17:24;;;;;;;2.53;2.33;;;16.70;99.90;;;;;;5091148;28;20025;-74
2021/05/10 04:19:49;;;;;;;6.90;2.47;;;16.80;99.90;;;;;;5092676;28;20051;-74
2021/05/10 04:22:15;;;;;;;5.70;2.35;;;16.90;99.90;;;;;;5092055;28;20048;-73
2021/05/10 04:24:40;;;;;;;3.08;2.50;;;17.00;99.90;;;;;;5091967;28;20136;-74
2021/05/10 04:27:07;;;;;;;9.18;2.53;;;17.00;99.90;;;;;;5092427;28;20016;-75
2021/05/10 04:29:33;;;;;;;2.78;2.33;;;17.10;99.90;;;;;;5092150;28;20040;-75
2021/05/10 04:32:01;;;;;;;4.03;2.25;;;17.10;99.90;;;;;;5091794;28;20112;-76
2021/05/10 04:34:27;;;;;;;2.42;2.17;;;17.10;99.90;;;;;;5092186;28;20024;-75
2021/05/10 04:36:52;;;;;;;4.53;2.58;;;17.20;99.90;;;;;;5091709;28;20046;-75
2021/05/10 04:39:18;;;;;;;8.77;2.58;;;17.20;99.90;;;;;;5092477;28;20059;-77
2021/05/10 04:41:44;;;;;;;2.90;2.70;;;17.30;99.90;;;;;;5092430;28;20116;-77
2021/05/10 04:44:09;;;;;;;7.03;3.33;;;17.40;99.90;;;;;;5092486;28;20016;-77
2021/05/10 04:46:35;;;;;;;5.57;3.60;;;17.30;99.90;;;;;;5088209;28;20024;-77
2021/05/10 04:49:00;;;;;;;4.55;3.47;;;17.30;99.90;;;;;;5082012;28;20353;-76
2021/05/10 04:51:26;;;;;;;7.90;3.53;;;17.10;99.90;;;;;;5091558;28;20486;-76
2021/05/10 04:53:51;;;;;;;4.63;3.90;;;17.00;99.90;;;;;;5099075;28;20016;-77
2021/05/10 04:56:17;;;;;;;4.60;3.95;;;16.90;99.90;;;;;;5098527;28;20038;-75
2021/05/10 04:58:43;;;;;;;4.97;3.70;;;16.80;99.90;;;;;;5084152;28;20020;-76
2021/05/10 05:01:08;;;;;;;5.63;4.20;;;16.70;99.90;;;;;;5099061;28;20028;-76
2021/05/10 05:03:34;;;;;;;4.63;3.60;;;16.60;99.90;;;;;;5098839;28;20069;-76
2021/05/10 05:05:59;;;;;;;5.10;3.10;;;16.50;99.90;;;;;;5098540;28;20027;-76
2021/05/10 05:08:25;;;;;;;3.70;2.53;;;16.40;99.90;;;;;;5098650;28;20042;-76
2021/05/10 05:10:51;;;;;;;3.28;2.65;;;16.30;99.90;;;;;;5083687;28;20175;-75
2021/05/10 05:13:21;;;;;;;2.40;2.20;;;16.40;99.90;;;;;;5079359;28;20035;-76
2021/05/10 05:15:46;;;;;;;4.15;2.50;;;16.20;99.90;;;;;;5077099;28;20043;-76
2021/05/10 05:18:12;;;;;;;3.92;2.03;;;16.20;99.90;;;;;;5076073;28;20528;-75
2021/05/10 05:20:37;;;;;;;2.25;2.05;;;16.20;99.90;;;;;;5078316;28;20032;-76
2021/05/10 05:23:03;;;;;;;2.50;2.30;;;16.20;99.90;;;;;;5078181;28;20450;-76
2021/05/10 05:25:29;;;;;;;8.90;3.58;;;16.20;99.90;;;;;;5080475;28;20031;-76
2021/05/10 05:27:54;;;;;;;6.18;3.08;;;16.30;99.90;;;;;;5079831;28;20031;-76
2021/05/10 05:30:20;;;;;;;5.63;3.20;;;16.30;99.90;;;;;;5077230;28;20357;-76
2021/05/10 05:32:45;;;;;;;3.92;3.03;;;16.20;99.90;;;;;;5080901;28;20028;-77
2021/05/10 05:35:14;;;;;;;4.18;3.17;;;16.20;99.90;;;;;;5082119;28;20021;-77
2021/05/10 05:37:40;;;;;;;2.97;2.67;;;16.20;99.90;;;;;;5077382;28;20024;-77
2021/05/10 05:40:06;;;;;;;7.30;2.95;;;16.20;99.90;;;;;;5072690;28;20028;-76
2021/05/10 05:42:32;;;;;;;3.40;3.10;;;16.20;99.90;;;;;;5079457;28;20031;-76
2021/05/10 05:44:57;;;;;;;4.75;2.55;;;16.20;99.90;;;;;;5080499;28;20012;-77
2021/05/10 05:47:25;;;;;;;3.38;2.38;;;16.20;99.90;;;;;;5070210;28;20021;-77
2021/05/10 05:49:52;;;;;;;2.47;2.28;;;16.30;99.90;;;;;;5069584;28;20059;-76
2021/05/10 05:52:20;;;;;;;3.55;2.53;;;16.30;99.90;;;;;;5063484;28;20028;-77
2021/05/10 05:54:46;;;;;;;4.68;2.10;;;16.30;99.90;;;;;;5070276;28;20098;-77
2021/05/10 05:57:11;;;;;;;6.38;1.92;;;16.30;99.90;;;;;;5078558;28;20033;-77
2021/05/10 05:59:37;;;;;;;2.00;1.50;;;16.30;99.90;;;;;;5077324;28;20028;-77
2021/05/10 06:02:03;;;;;;;2.92;2.10;;;16.40;99.90;;;;;;5077476;28;20040;-77
2021/05/10 06:04:28;;;;;;;2.15;1.95;;;16.40;99.90;;;;;;5075155;28;20423;-77
2021/05/10 06:06:54;;;;;;;2.80;2.00;;;16.40;99.90;;;;;;5074916;28;20028;-78
2021/05/10 06:09:21;;;;;;;2.25;1.70;;;16.40;99.90;;;;;;5074649;28;20021;-77
2021/05/10 06:11:46;;;;;;;3.05;1.70;;;16.30;99.90;;;;;;5075460;28;20028;-78
2021/05/10 06:14:12;;;;;;;6.15;1.80;;;16.30;99.90;;;;;;5072409;28;20099;-77
2021/05/10 06:16:37;;;;;;;1.65;1.55;;;16.30;99.90;;;;;;5066644;28;20055;-77
2021/05/10 06:19:03;;;;;;;2.03;1.88;;;16.30;99.90;;;;;;5058388;28;20517;-78
2021/05/10 06:21:29;;;;;;;3.65;1.40;;;16.30;99.90;;;;;;5066119;28;20025;-79
2021/05/10 06:23:54;;;;;;;3.10;1.95;;;16.40;99.90;;;;;;5071970;28;20159;-78
2021/05/10 06:26:20;;;;;;;9.13;2.17;;;16.50;99.90;;;;;;5065909;28;20020;-81
2021/05/10 06:28:47;;;;;;;5.65;2.28;;;16.50;99.90;;;;;;5070011;28;20024;-76
2021/05/10 06:31:13;;;;;;;2.42;2.05;;;16.70;99.90;;;;;;5073603;28;20131;-80
2021/05/10 06:33:39;;;;;;;2.00;1.90;;;16.80;99.90;;;;;;5074123;28;20101;-76
2021/05/10 06:36:05;;;;;;;2.58;2.38;;;17.00;99.90;;;;;;5075067;28;20036;-76
2021/05/10 06:38:30;;;;;;;3.78;2.08;;;17.20;99.90;;;;;;5073808;28;20016;-76
2021/05/10 06:40:56;;;;;;;2.80;2.60;;;17.30;99.90;;;;;;5074614;28;20021;-76
2021/05/10 06:43:22;;;;;;;2.03;1.92;;;17.40;99.90;;;;;;5074871;28;20473;-76
2021/05/10 06:45:47;;;;;;;6.20;2.70;;;17.50;99.90;;;;;;5073570;28;20435;-75
2021/05/10 06:48:28;;;;;;;3.17;2.95;;;17.50;99.90;;;;;;5080263;28;20032;-77
2021/05/10 06:50:54;;;;;;;4.72;2.22;;;17.40;99.90;;;;;;5073946;28;20024;-80
2021/05/10 06:53:19;;;;;;;3.35;3.00;;;17.40;99.90;;;;;;5077955;28;20031;-80
2021/05/10 06:55:45;;;;;;;2.50;2.28;;;17.30;99.90;;;;;;5074787;28;20040;-79
2021/05/10 06:58:10;;;;;;;5.95;2.60;;;17.20;99.90;;;;;;5075126;28;20016;-80
2021/05/10 07:00:37;;;;;;;5.13;2.40;;;17.20;99.90;;;;;;5073591;28;20021;-79
2021/05/10 07:03:06;;;;;;;3.75;2.88;;;17.10;99.90;;;;;;5073525;28;20407;-81
2021/05/10 07:05:31;;;;;;;4.10;3.00;;;16.90;99.90;;;;;;5075606;28;20020;-80
2021/05/10 07:07:57;;;;;;;3.30;2.60;;;16.80;99.90;;;;;;5076853;28;20574;-79
2021/05/10 07:10:23;;;;;;;6.63;3.65;;;16.80;99.90;;;;;;5080359;28;20028;-77
2021/05/10 07:12:48;;;;;;;3.97;3.50;;;16.70;99.90;;;;;;5074431;28;20025;-79
2021/05/10 07:15:14;;;;;;;2.97;2.78;;;16.80;99.90;;;;;;5074934;28;20039;-80
2021/05/10 07:17:40;;;;;;;5.68;2.80;;;16.70;99.90;;;;;;5075511;28;20028;-77
2021/05/10 07:20:06;;;;;;;4.75;2.58;;;16.70;99.90;;;;;;5071138;28;20061;-80
2021/05/10 07:22:34;;;;;;;3.42;3.10;;;16.80;99.90;;;;;;5085197;28;20066;-79
2021/05/10 07:25:00;;;;;;;4.00;3.20;;;16.90;99.90;;;;;;5081077;28;20099;-82
2021/05/10 07:27:26;;;;;;;4.47;3.20;;;16.90;99.90;;;;;;5073412;28;20063;-78
2021/05/10 07:29:51;;;;;;;3.53;3.22;;;16.90;99.90;;;;;;5074614;28;20024;-79
2021/05/10 07:32:17;;;;;;;3.30;3.00;;;16.90;99.90;;;;;;5073447;28;20484;-79
2021/05/10 07:34:42;;;;;;;4.07;3.67;;;16.80;99.90;;;;;;5076674;28;20024;-79
2021/05/10 07:37:08;;;;;;;5.80;3.70;;;16.80;99.90;;;;;;5089304;28;20028;-75
2021/05/10 07:39:34;;;;;;;4.72;3.28;;;16.70;99.90;;;;;;5069419;28;20025;-74
2021/05/10 07:41:59;;;;;;;3.03;2.10;;;16.50;99.90;;;;;;5071310;28;20032;-76
2021/05/10 07:44:25;;;;;;;3.22;1.50;;;16.40;99.90;;;;;;5072295;28;20025;-77
2021/05/10 07:46:50;;;;;;;1.40;1.30;;;16.20;99.90;;;;;;5075674;28;20468;-76
2021/05/10 07:49:16;;;;;;;1.30;1.20;;;16.10;99.90;;;;;;5073522;28;20476;-76
2021/05/10 07:51:41;;;;;;;1.33;1.20;;;16.00;99.90;;;;;;5071270;28;20023;-77
2021/05/10 07:54:07;;;;;;;2.92;1.30;;;15.90;99.90;;;;;;5070310;28;20032;-77
2021/05/10 07:56:32;;;;;;;1.50;1.40;;;15.80;99.90;;;;;;5073682;28;20040;-79
2021/05/10 07:59:00;;;;;;;2.60;1.65;;;15.90;99.90;;;;;;5074272;28;20113;-78
2021/05/10 08:01:26;;;;;;;2.25;1.48;;;15.90;99.90;;;;;;5073465;28;20025;-77
2021/05/10 08:03:51;;;;;;;2.58;1.50;;;15.90;99.90;;;;;;5072828;28;20032;-77
2021/05/10 08:06:17;;;;;;;1.48;1.25;;;15.90;99.90;;;;;;5069157;28;20377;-78
2021/05/10 08:08:43;;;;;;;5.07;1.73;;;16.00;99.90;;;;;;5073012;28;20522;-78
2021/05/10 08:11:08;;;;;;;1.70;1.60;;;16.10;99.90;;;;;;5084151;28;20032;-78
2021/05/10 08:13:34;;;;;;;1.85;1.30;;;16.10;99.90;;;;;;5083929;28;20380;-78
2021/05/10 08:16:00;;;;;;;2.58;1.50;;;16.10;99.90;;;;;;5082171;28;20450;-80
2021/05/10 08:18:25;;;;;;;4.95;1.67;;;16.10;99.90;;;;;;5073415;28;20135;-79
2021/05/10 08:20:56;;;;;;;4.25;1.45;;;16.20;99.90;;;;;;5071873;28;20024;-77
2021/05/10 08:23:22;;;;;;;2.85;1.17;;;16.10;99.90;;;;;;5071338;28;20046;-77
2021/05/10 08:25:49;;;;;;;4.05;1.40;;;16.10;99.90;;;;;;5072355;28;20467;-76
2021/05/10 08:28:15;;;;;;;3.72;1.40;;;16.10;99.90;;;;;;5071403;28;20537;-78
2021/05/10 08:30:40;;;;;;;6.03;1.98;;;16.20;99.90;;;;;;5071748;28;20024;-77
2021/05/10 08:33:06;;;;;;;3.67;1.23;;;16.30;99.90;;;;;;5073486;28;20104;-79
2021/05/10 08:35:32;;;;;;;2.33;1.20;;;16.20;99.90;;;;;;5086838;28;20019;-78
2021/05/10 08:38:02;;;;;;;3.53;1.40;;;16.20;99.90;;;;;;5091035;28;20369;-77
2021/05/10 08:40:28;;;;;;;2.90;1.38;;;16.20;99.90;;;;;;5082165;28;20024;-79
2021/05/10 08:42:59;;;;;;;1.58;1.13;;;16.20;99.90;;;;;;5092062;28;20460;-78
2021/05/10 08:45:25;;;;;;;2.75;1.30;;;16.20;99.90;;;;;;5092560;28;20415;-78
2021/05/10 08:47:51;;;;;;;4.30;1.40;;;16.10;99.90;;;;;;5078314;28;20032;-78
2021/05/10 08:50:17;;;;;;;3.03;1.33;;;16.20;99.90;;;;;;5091911;28;20474;-77
2021/05/10 08:52:43;;;;;;;2.00;1.25;;;16.30;99.90;;;;;;5092694;28;20170;-78
2021/05/10 08:55:14;;;;;;;3.05;1.50;;;16.30;99.90;;;;;;5092696;28;20379;-78
2021/05/10 08:57:40;;;;;;;2.08;1.20;;;16.40;99.90;;;;;;5081074;28;20050;-77
2021/05/10 09:00:11;;;;;;;5.15;1.92;;;16.50;99.90;;;;;;5089640;28;20509;-78
2021/05/10 09:02:37;;;;;;;2.22;1.60;;;16.50;99.90;;;;;;5075681;28;20079;-78
2021/05/10 09:05:11;;;;;;;3.78;1.60;;;16.60;99.90;;;;;;5068357;28;20024;-78
2021/05/10 09:07:36;;;;;;;6.22;1.92;;;16.70;99.90;;;;;;5081000;28;20494;-73
2021/05/10 09:10:06;;;;;;;3.35;2.30;;;16.80;99.90;;;;;;5072615;28;20020;-72
2021/05/10 09:12:48;;;;;;;4.75;2.65;;;16.80;99.90;;;;;;5065027;28;20042;-71
2021/05/10 09:15:31;;;;;;;3.90;2.33;;;16.80;99.90;;;;;;5060322;28;20031;-78
2021/05/10 09:18:02;;;;;;;3.22;2.70;;;16.80;99.90;;;;;;5072525;28;20040;-80
2021/05/10 09:20:39;;;;;;;4.80;3.00;;;16.80;99.90;;;;;;5071843;28;20027;-82
2021/05/10 09:23:09;;;;;;;5.70;3.55;;;16.70;99.90;;;;;;5072648;28;20111;-81
2021/05/10 09:25:54;;;;;;;8.98;5.60;;;16.60;99.90;;;;;;5071515;28;20019;-81
2021/05/10 09:28:25;;;;;;;7.07;4.57;;;16.50;99.90;;;;;;5087592;28;20027;-81
2021/05/10 09:30:50;;;;;;;;;;;16.40;99.90;;;;;;5059174;28;20025;-82
2021/05/10 09:33:25;;;;;;;5.97;4.53;;;16.30;99.90;;;;;;5071749;28;20287;-80
2021/05/10 09:36:04;;;;;;;6.18;4.68;;;16.40;99.90;;;;;;5072371;28;20078;-81
2021/05/10 09:38:32;;;;;;;5.38;4.88;;;16.40;99.90;;;;;;5067535;28;20036;-78
2021/05/10 09:41:00;;;;;;;8.70;5.03;;;16.50;99.90;;;;;;5095489;28;20016;-79
2021/05/10 09:43:35;;;;;;;5.28;4.78;;;16.50;99.90;;;;;;5095743;28;20051;-79
2021/05/10 09:46:11;;;;;;;6.40;4.97;;;16.50;99.90;;;;;;5096125;28;20024;-79
2021/05/10 09:48:39;;;;;;;6.50;4.95;;;16.50;99.90;;;;;;5095589;28;20020;-81
2021/05/10 09:51:05;;;;;;;5.88;5.05;;;16.40;99.90;;;;;;5096071;28;20024;-81
2021/05/10 09:53:48;;;;;;;6.85;5.45;;;16.40;99.90;;;;;;5095166;28;20441;-81
2021/05/10 09:56:19;;;;;;;8.32;5.72;;;16.40;99.90;;;;;;5095641;28;20131;-80
2021/05/10 09:58:46;;;;;;;6.40;5.07;;;16.40;99.90;;;;;;5095730;28;20012;-81
2021/05/10 10:01:12;;;;;;;5.78;5.28;;;16.40;99.90;;;;;;5094456;28;20032;-81
2021/05/10 10:03:46;;;;;;;6.90;5.43;;;16.40;99.90;;;;;;5095680;28;20123;-80
2021/05/10 10:06:17;;;;;;;6.82;4.82;;;16.40;99.90;;;;;;5095086;28;20460;-80
2021/05/10 10:08:44;;;;;;;9.52;5.30;;;16.40;99.90;;;;;;5077734;28;20028;-80
2021/05/10 10:11:14;;;;;;;5.43;4.93;;;16.50;99.90;;;;;;5067820;28;20036;-81
2021/05/10 10:13:39;;;;;;;5.68;5.05;;;16.40;99.90;;;;;;5066245;28;20022;-80
2021/05/10 10:16:07;;;;;;;9.30;5.35;;;16.50;99.90;;;;;;5059774;28;20055;-80
2021/05/10 10:18:36;;;;;;;6.20;4.90;;;16.50;99.90;;;;;;5074089;28;20048;-80
2021/05/10 10:21:03;;;;;;;5.00;3.38;;;16.50;99.90;;;;;;5074942;28;20418;-80
2021/05/10 10:23:29;;;;;;;6.18;3.50;;;16.60;99.90;;;;;;5074228;28;20111;-79
2021/05/10 10:25:57;;;;;;;4.70;3.28;;;16.50;99.90;;;;;;5075197;28;20167;-80
2021/05/10 10:28:24;;;;;;;4.38;3.00;;;16.50;99.90;;;;;;5074431;28;20029;-79
2021/05/10 10:30:52;;;;;;;5.50;3.20;;;16.50;99.90;;;;;;5074947;28;20025;-78
2021/05/10 10:33:27;;;;;;;7.07;3.58;;;16.50;99.90;;;;;;5074236;28;20105;-77
2021/05/10 10:35:54;;;;;;;3.17;2.88;;;16.40;99.90;;;;;;5087393;28;20039;-77
2021/05/10 10:38:27;;;;;;;3.97;3.40;;;16.40;99.90;;;;;;5094310;28;20529;-78
2021/05/10 10:41:14;;;;;;;6.55;3.28;;;16.50;99.90;;;;;;5094370;28;20035;-78
2021/05/10 10:43:40;;;;;;;5.32;3.67;;;16.60;99.90;;;;;;5070042;28;20023;-78
2021/05/10 10:46:30;;;;;;;5.57;3.22;;;16.90;99.90;;;;;;5080788;28;20029;-80
2021/05/10 10:48:58;;;;;;;6.47;3.63;;;17.20;99.90;;;;;;5058593;28;20060;-79
2021/05/10 10:51:25;;;;;;;4.50;2.60;;;17.50;99.90;;;;;;5057672;28;20040;-80
2021/05/10 10:53:55;;;;;;;6.50;2.97;;;17.70;99.90;;;;;;5060896;28;20021;-78
2021/05/10 10:56:48;;;;;;;3.88;2.65;;;17.80;99.90;;;;;;5055633;28;20040;-79
2021/05/10 10:59:35;;;;;;;6.10;2.72;;;18.10;99.90;;;;;;5059438;28;20037;-80
2021/05/10 11:02:15;;;;;;;4.68;2.72;;;18.20;99.90;;;;;;5064044;28;20032;-79
2021/05/10 11:04:40;;;;;;;3.85;3.28;;;18.30;99.90;;;;;;5069922;28;20016;-80
2021/05/10 11:07:06;;;;;;;6.00;3.33;;;18.30;99.90;;;;;;5087593;28;20118;-81
2021/05/10 11:09:52;;;;;;;4.80;3.42;;;18.40;99.90;;;;;;5077856;28;20184;-81
2021/05/10 11:12:49;;;;;;;3.85;3.15;;;18.50;99.90;;;;;;5087962;28;20092;-79
2021/05/10 11:15:34;;;;;;;6.88;3.20;;;18.50;99.90;;;;;;5080341;28;20016;-81
2021/05/10 11:18:03;;;;;;;6.32;3.15;;;18.70;99.90;;;;;;5084400;28;20040;-79
2021/05/10 11:20:41;;;;;;;5.93;3.63;;;18.80;99.90;;;;;;5069736;28;20096;-81
2021/05/10 11:23:24;;;;;;;3.97;3.10;;;19.00;99.90;;;;;;5063842;28;20035;-81
2021/05/10 11:25:57;;;;;;;4.25;3.72;;;19.00;99.90;;;;;;5079569;28;20464;-81
2021/05/10 11:28:29;;;;;;;5.53;3.92;;;19.20;99.90;;;;;;5076758;28;20222;-81
2021/05/10 11:30:55;;;;;;;4.72;3.92;;;19.40;99.90;;;;;;5079755;28;20017;-81
2021/05/10 11:33:59;;;;;;;9.77;3.97;;;19.40;99.90;;;;;;5076158;28;20032;-81
2021/05/10 11:36:26;;;;;;;5.47;4.13;;;19.60;99.90;;;;;;5009319;28;20082;-80
2021/05/10 11:38:56;;;;;;;4.00;3.30;;;19.60;99.90;;;;;;5001323;28;20493;-80
2021/05/10 11:41:42;;;;;;;7.10;3.75;;;19.60;99.90;;;;;;5049307;28;20462;-80
2021/05/10 11:44:10;;;;;;;5.53;3.90;;;19.50;99.90;;;;;;5093443;28;20028;-80
2021/05/10 11:46:40;;;;;;;6.90;3.80;;;19.60;99.90;;;;;;5092009;28;20108;-79
2021/05/10 11:49:08;;;;;;;4.78;4.20;;;19.60;99.90;;;;;;5093142;28;20039;-80
2021/05/10 11:51:36;;;;;;;5.75;4.70;;;19.50;99.90;;;;;;5092541;28;20068;-78
2021/05/10 11:54:05;;;;;;;6.25;4.05;;;19.40;99.90;;;;;;5092360;28;20532;-81
2021/05/10 11:56:40;;;;;;;4.00;3.53;;;19.20;99.90;;;;;;5076645;28;20040;-81
2021/05/10 11:59:25;;;;;;;9.52;4.95;;;19.10;99.90;;;;;;5059737;28;20024;-81
2021/05/10 12:01:51;;;;;;;7.05;4.80;;;19.00;99.90;;;;;;5071272;28;20126;-80
2021/05/10 12:04:22;;;;;;;8.25;3.88;;;18.90;99.90;;;;;;5072851;28;20477;-81
2021/05/10 12:06:48;;;;;;;6.95;4.60;;;18.70;99.90;;;;;;5076985;28;20024;-82
2021/05/10 12:09:32;;;;;;;12.80;4.55;;;18.60;99.90;;;;;;5091097;28;20035;-82
2021/05/10 12:11:59;;;;;;;4.93;4.47;;;18.50;99.90;;;;;;5064207;28;20033;-84
2021/05/10 12:14:24;;;;;;;5.53;4.75;;;18.50;99.90;;;;;;5070265;28;20031;-84
2021/05/10 12:17:07;;;;;;;7.75;4.50;;;18.40;99.90;;;;;;5071110;28;20044;-84
2021/05/10 12:19:52;;;;;;;8.25;4.05;;;18.30;99.90;;;;;;5070535;28;20465;-84
2021/05/10 12:22:21;;;;;;;8.38;4.00;;;18.20;99.90;;;;;;5070389;28;20028;-84
2021/05/10 12:24:56;;;;;;;9.15;4.50;;;18.10;99.90;;;;;;5071249;28;20421;-84
2021/05/10 12:27:24;;;;;;;4.60;4.10;;;18.10;99.90;;;;;;5071097;28;20027;-84
2021/05/10 12:29:50;;;;;;;9.65;4.90;;;18.20;99.90;;;;;;5072562;28;20385;-83
2021/05/10 12:32:16;;;;;;;6.00;4.97;;;18.40;99.90;;;;;;5072262;28;20032;-84
2021/05/10 12:34:42;;;;;;;7.53;4.13;;;18.70;99.90;;;;;;5076687;28;20472;-85
2021/05/10 12:37:08;;;;;;;6.18;4.43;;;19.00;99.90;;;;;;5082349;28;20043;-84
2021/05/10 12:39:33;;;;;;;7.75;4.93;;;19.10;99.90;;;;;;5074350;28;20016;-83
2021/05/10 12:42:20;;;;;;;6.53;4.45;;;19.20;99.90;;;;;;5075954;28;20055;-83
2021/05/10 12:45:16;;;;;;;9.57;5.00;;;19.30;99.90;;;;;;5093315;28;20020;-83
2021/05/10 12:47:46;;;;;;;11.05;4.40;;;19.40;99.90;;;;;;5080200;28;20039;-82
2021/05/10 12:50:31;;;;;;;13.88;5.57;;;19.40;99.90;;;;;;5091791;28;20016;-84
2021/05/10 12:52:58;;;;;;;8.77;4.32;;;19.50;99.90;;;;;;5092575;28;20495;-84
2021/05/10 12:55:23;;;;;;;9.07;4.95;;;19.60;99.90;;;;;;5092768;28;20078;-83
2021/05/10 12:57:50;;;;;;;15.43;6.13;;;19.70;99.90;;;;;;5093358;28;20414;-82
2021/05/10 13:00:37;;;;;;;15.52;6.65;;;19.60;99.90;;;;;;5103312;28;20023;-83